Time;durP1;ratioP1;P1;durP2;ratioP2;P2;SDS_P1;SDS_P2;PMS_P1;PMS_P2;Temp;Humidity;BMP_temperature;BMP_pressure;BME280_temperature;BME280_humidity;BME280_pressure;Samples;Min_cycle;Max_cycle;Signal;HPM_P1;HPM_P2
2021/12/10 00:01:29;;;;;;;26.63;24.73;;;;;;;;;;5074412;28;20201;-85
2021/12/10 00:03:58;;;;;;;26.27;24.38;;;;;;;;;;5056177;28;20230;-85
2021/12/10 00:06:29;;;;;;;27.17;25.15;;;;;;;;;;5074054;28;20284;-85
2021/12/10 00:08:59;;;;;;;26.40;24.30;;;;;;;;;;5084533;28;20212;-84
2021/12/10 00:11:29;;;;;;;25.58;23.73;;;;;;;;;;5094611;28;20197;-85
2021/12/10 00:13:57;;;;;;;26.10;24.27;;;;;;;;;;5093685;28;20232;-84
2021/12/10 00:16:25;;;;;;;26.02;24.35;;;;;;;;;;5094397;28;20285;-85
2021/12/10 00:18:56;;;;;;;25.52;23.83;;;;;;;;;;5076019;28;20683;-85
2021/12/10 00:21:25;;;;;;;26.13;24.23;;;;;;;;;;5094325;28;20201;-85
2021/12/10 00:23:56;;;;;;;26.27;24.42;;;;;;;;;;5093249;28;20315;-85
2021/12/10 00:26:24;;;;;;;26.85;24.85;;;;;;;;;;5094267;28;20182;-85
2021/12/10 00:28:52;;;;;;;25.83;24.02;;;;;;;;;;5093912;28;20190;-85
2021/12/10 00:31:31;;;;;;;24.90;23.27;;;;;;;;;;5093992;28;20676;-85
2021/12/10 00:33:59;;;;;;;25.13;23.42;;;;;;;;;;5094012;28;20237;-85
2021/12/10 00:36:27;;;;;;;26.73;24.73;;;;;;;;;;5075784;28;20659;-85
2021/12/10 00:38:56;;;;;;;25.42;23.77;;;;;;;;;;5093447;28;20212;-85
2021/12/10 00:41:24;;;;;;;26.67;24.85;;;;;;;;;;5093997;28;20205;-85
2021/12/10 00:43:51;;;;;;;25.65;23.77;;;;;;;;;;5093153;28;20267;-84
2021/12/10 00:46:19;;;;;;;25.95;24.30;;;;;;;;;;5093520;28;20212;-84
2021/12/10 00:48:46;;;;;;;25.23;23.25;;;;;;;;;;5093654;28;20205;-84
2021/12/10 00:51:14;;;;;;;25.63;23.92;;;;;;;;;;5093709;28;20205;-85
2021/12/10 00:53:42;;;;;;;26.40;24.40;;;;;;;;;;5093785;28;20211;-85
2021/12/10 00:56:11;;;;;;;26.02;24.33;;;;;;;;;;5075912;28;20196;-85
2021/12/10 00:58:39;;;;;;;25.95;24.15;;;;;;;;;;5093470;28;20608;-84
2021/12/10 01:01:08;;;;;;;25.60;23.90;;;;;;;;;;5093482;28;20193;-85
2021/12/10 01:03:38;;;;;;;26.73;24.95;;;;;;;;;;5074912;28;20237;-85
2021/12/10 01:06:07;;;;;;;26.27;24.48;;;;;;;;;;5093263;28;20296;-84
2021/12/10 01:08:35;;;;;;;27.45;25.50;;;;;;;;;;5093322;28;20201;-85
2021/12/10 01:11:05;;;;;;;27.58;25.58;;;;;;;;;;5093141;28;20254;-84
2021/12/10 01:13:36;;;;;;;26.85;24.85;;;;;;;;;;5093070;28;20271;-84
2021/12/10 01:23:39;;;;;;;25.85;24.05;;;;;;;;;;5093241;28;20255;-84
2021/12/10 01:24:38;;;;;;;27.05;25.25;;;;;;;;;;5093062;28;20267;-84
2021/12/10 01:27:12;;;;;;;26.67;24.83;;;;;;;;;;5093011;28;20204;-85
2021/12/10 01:29:42;;;;;;;25.15;23.55;;;;;;;;;;5092844;28;20190;-84
2021/12/10 01:32:12;;;;;;;25.27;23.67;;;;;;;;;;5092843;28;20270;-83
2021/12/10 01:34:40;;;;;;;24.08;22.45;;;;;;;;;;5092995;28;20200;-84
2021/12/10 01:37:10;;;;;;;25.48;23.88;;;;;;;;;;5093204;28;20661;-84
2021/12/10 01:39:39;;;;;;;26.03;24.20;;;;;;;;;;5071018;28;20243;-85
2021/12/10 01:42:15;;;;;;;24.92;23.40;;;;;;;;;;5072983;28;20444;-84
2021/12/10 01:44:45;;;;;;;25.05;23.45;;;;;;;;;;5072793;28;20626;-85
2021/12/10 01:47:14;;;;;;;24.80;22.92;;;;;;;;;;5072536;28;20751;-85
2021/12/10 01:49:43;;;;;;;24.33;22.63;;;;;;;;;;5072621;28;20689;-85
2021/12/10 01:52:11;;;;;;;25.65;23.95;;;;;;;;;;5072562;28;20520;-85
2021/12/10 01:54:40;;;;;;;24.77;23.15;;;;;;;;;;5072519;28;20193;-85
2021/12/10 01:57:08;;;;;;;25.30;23.63;;;;;;;;;;5072806;28;20557;-85
2021/12/10 01:59:36;;;;;;;25.50;23.70;;;;;;;;;;5072375;28;20542;-85
2021/12/10 02:02:07;;;;;;;25.58;23.70;;;;;;;;;;5072870;28;20193;-85
2021/12/10 02:04:36;;;;;;;25.83;24.05;;;;;;;;;;5071990;28;20324;-84
2021/12/10 02:07:05;;;;;;;25.33;23.52;;;;;;;;;;5072338;28;20201;-85
2021/12/10 02:09:33;;;;;;;25.65;23.95;;;;;;;;;;5058219;28;20275;-84
2021/12/10 02:12:00;;;;;;;25.33;23.70;;;;;;;;;;5052477;28;20268;-85
2021/12/10 02:14:28;;;;;;;25.50;23.80;;;;;;;;;;5052391;28;20590;-84
2021/12/10 02:16:58;;;;;;;25.35;23.65;;;;;;;;;;5052402;28;20203;-84
2021/12/10 02:19:27;;;;;;;24.70;23.10;;;;;;;;;;5051209;28;20265;-84
2021/12/10 02:21:57;;;;;;;24.85;23.30;;;;;;;;;;5052443;28;20191;-85
2021/12/10 02:24:24;;;;;;;25.25;23.45;;;;;;;;;;5052299;28;20706;-85
2021/12/10 02:26:53;;;;;;;25.40;23.80;;;;;;;;;;5052446;28;20195;-84
2021/12/10 02:29:21;;;;;;;25.45;23.85;;;;;;;;;;5051335;28;20217;-84
2021/12/10 02:31:49;;;;;;;25.50;23.70;;;;;;;;;;5052175;28;20244;-85
2021/12/10 02:34:16;;;;;;;25.20;23.60;;;;;;;;;;5052358;28;20208;-85
2021/12/10 02:36:44;;;;;;;25.33;23.45;;;;;;;;;;5052251;28;20198;-85
2021/12/10 02:39:14;;;;;;;25.10;23.48;;;;;;;;;;5056161;28;20240;-84
2021/12/10 02:41:42;;;;;;;25.48;23.77;;;;;;;;;;5054233;28;20210;-84
2021/12/10 02:44:10;;;;;;;24.98;23.38;;;;;;;;;;5071904;28;20212;-85
2021/12/10 02:46:38;;;;;;;24.90;23.13;;;;;;;;;;5071850;28;20632;-85
2021/12/10 02:49:05;;;;;;;25.33;23.63;;;;;;;;;;5075595;28;20196;-85
2021/12/10 02:51:35;;;;;;;25.55;23.85;;;;;;;;;;5075832;28;20243;-85
2021/12/10 02:54:03;;;;;;;24.92;23.13;;;;;;;;;;5075738;28;20205;-84
2021/12/10 02:56:32;;;;;;;25.50;23.70;;;;;;;;;;5075533;28;20213;-85
2021/12/10 02:59:01;;;;;;;25.05;23.25;;;;;;;;;;5075160;28;20189;-84
2021/12/10 03:01:32;;;;;;;25.52;23.88;;;;;;;;;;5075363;28;20200;-84
2021/12/10 03:03:59;;;;;;;25.30;23.60;;;;;;;;;;5074964;28;20258;-85
2021/12/10 03:06:27;;;;;;;25.73;23.88;;;;;;;;;;5075357;28;20303;-84
2021/12/10 03:08:56;;;;;;;25.88;24.20;;;;;;;;;;5084092;28;20189;-84
2021/12/10 03:11:25;;;;;;;26.10;24.30;;;;;;;;;;5095688;28;20185;-84
2021/12/10 03:13:54;;;;;;;26.58;24.77;;;;;;;;;;5077840;28;20212;-85
2021/12/10 03:16:22;;;;;;;25.42;23.55;;;;;;;;;;5095424;28;20206;-84
2021/12/10 03:18:50;;;;;;;25.48;23.67;;;;;;;;;;5095558;28;20192;-85
2021/12/10 03:21:18;;;;;;;25.60;23.90;;;;;;;;;;5095740;28;20520;-84
2021/12/10 03:23:48;;;;;;;23.65;22.05;;;;;;;;;;5095350;28;20225;-85
2021/12/10 03:26:18;;;;;;;25.67;23.98;;;;;;;;;;5095309;28;20595;-85
2021/12/10 03:28:46;;;;;;;25.85;24.15;;;;;;;;;;5095339;28;20196;-84
2021/12/10 03:31:15;;;;;;;25.52;23.63;;;;;;;;;;5095061;28;20190;-84
2021/12/10 03:33:43;;;;;;;25.42;23.52;;;;;;;;;;5095184;28;20204;-85
2021/12/10 03:36:11;;;;;;;26.50;24.60;;;;;;;;;;5094841;28;20657;-85
2021/12/10 03:38:40;;;;;;;25.98;23.98;;;;;;;;;;5095136;28;20212;-84
2021/12/10 03:41:08;;;;;;;24.85;23.27;;;;;;;;;;5094639;28;20238;-84
2021/12/10 03:43:35;;;;;;;26.23;24.50;;;;;;;;;;5094408;28;20220;-84
2021/12/10 03:46:03;;;;;;;25.33;23.55;;;;;;;;;;5077041;28;20202;-85
2021/12/10 03:48:33;;;;;;;25.92;24.02;;;;;;;;;;5094729;28;20197;-84
2021/12/10 03:51:02;;;;;;;26.45;24.55;;;;;;;;;;5094760;28;20249;-85
2021/12/10 03:53:30;;;;;;;25.60;23.90;;;;;;;;;;5094764;28;20604;-84
2021/12/10 03:55:59;;;;;;;25.33;23.63;;;;;;;;;;5094585;28;20204;-84
2021/12/10 03:58:27;;;;;;;26.00;24.17;;;;;;;;;;5094373;28;20239;-84
2021/12/10 04:00:56;;;;;;;26.10;24.25;;;;;;;;;;5094646;28;20208;-85
2021/12/10 04:03:24;;;;;;;25.90;23.77;;;;;;;;;;5094058;28;20627;-84
2021/12/10 04:05:54;;;;;;;25.77;24.08;;;;;;;;;;5094354;28;20233;-85
2021/12/10 04:08:21;;;;;;;24.38;22.77;;;;;;;;;;5094426;28;20286;-85
2021/12/10 04:10:49;;;;;;;24.90;23.30;;;;;;;;;;5094179;28;20184;-84
2021/12/10 04:13:17;;;;;;;25.02;23.25;;;;;;;;;;5094154;28;20192;-84
2021/12/10 04:15:45;;;;;;;24.45;22.85;;;;;;;;;;5094149;28;20219;-83
2021/12/10 04:18:13;;;;;;;25.55;23.85;;;;;;;;;;5094340;28;20196;-84
2021/12/10 04:20:41;;;;;;;25.23;23.63;;;;;;;;;;5093971;28;20654;-84
2021/12/10 04:23:11;;;;;;;24.88;23.08;;;;;;;;;;5093844;28;20216;-85
2021/12/10 04:25:40;;;;;;;24.20;22.60;;;;;;;;;;5093883;28;20227;-84
2021/12/10 04:28:11;;;;;;;24.75;23.25;;;;;;;;;;5094249;28;20239;-84
2021/12/10 04:30:41;;;;;;;25.70;23.95;;;;;;;;;;5094066;28;20946;-85
2021/12/10 04:33:08;;;;;;;24.95;23.45;;;;;;;;;;5094143;28;20287;-84
2021/12/10 04:35:36;;;;;;;24.98;23.38;;;;;;;;;;5075584;28;20719;-83
2021/12/10 04:38:04;;;;;;;24.17;22.52;;;;;;;;;;5094097;28;20188;-85
2021/12/10 04:40:33;;;;;;;25.63;23.88;;;;;;;;;;5093326;28;20318;-85
2021/12/10 04:43:00;;;;;;;24.85;23.15;;;;;;;;;;5093617;28;20196;-84
2021/12/10 04:45:28;;;;;;;24.63;22.90;;;;;;;;;;5093110;28;20220;-84
2021/12/10 04:47:55;;;;;;;24.55;23.05;;;;;;;;;;5093405;28;20602;-85
2021/12/10 04:50:24;;;;;;;25.02;23.33;;;;;;;;;;5093291;28;20257;-85
2021/12/10 04:52:51;;;;;;;25.10;23.40;;;;;;;;;;5093090;28;20241;-85
2021/12/10 04:55:20;;;;;;;23.77;22.38;;;;;;;;;;5093491;28;20648;-84
2021/12/10 04:57:48;;;;;;;24.10;22.60;;;;;;;;;;5093108;28;20241;-85
2021/12/10 05:00:17;;;;;;;21.23;20.05;;;;;;;;;;5093056;28;20184;-84
2021/12/10 05:02:45;;;;;;;24.67;23.15;;;;;;;;;;5092798;28;20223;-84
2021/12/10 05:05:13;;;;;;;23.52;22.08;;;;;;;;;;5092959;28;20239;-84
2021/12/10 05:07:40;;;;;;;25.25;23.55;;;;;;;;;;5092782;28;20541;-84
2021/12/10 05:10:09;;;;;;;25.10;23.60;;;;;;;;;;5074487;28;20697;-84
2021/12/10 05:12:37;;;;;;;23.05;21.55;;;;;;;;;;5073109;28;20244;-86
2021/12/10 05:15:06;;;;;;;22.95;21.55;;;;;;;;;;5072999;28;20188;-87
2021/12/10 05:17:35;;;;;;;25.20;23.70;;;;;;;;;;5072991;28;20502;-86
2021/12/10 05:20:03;;;;;;;24.13;22.63;;;;;;;;;;5073052;28;20215;-86
2021/12/10 05:22:31;;;;;;;25.15;23.48;;;;;;;;;;5073089;28;20200;-86
2021/12/10 05:24:58;;;;;;;24.00;22.40;;;;;;;;;;5072971;28;20226;-85
2021/12/10 05:27:25;;;;;;;23.80;22.40;;;;;;;;;;5072709;28;20193;-85
2021/12/10 05:29:53;;;;;;;24.65;22.95;;;;;;;;;;5072983;28;20583;-85
2021/12/10 05:32:22;;;;;;;25.50;23.70;;;;;;;;;;5072834;28;20184;-85
2021/12/10 05:34:49;;;;;;;25.13;23.25;;;;;;;;;;5072405;28;20199;-85
2021/12/10 05:37:18;;;;;;;24.52;23.02;;;;;;;;;;5055060;28;20200;-85
2021/12/10 05:39:45;;;;;;;25.90;24.02;;;;;;;;;;5051208;28;20242;-85
2021/12/10 05:42:12;;;;;;;25.10;23.30;;;;;;;;;;5053039;28;20187;-85
2021/12/10 05:44:40;;;;;;;25.85;24.10;;;;;;;;;;5052623;28;20599;-86
2021/12/10 05:47:08;;;;;;;25.17;23.50;;;;;;;;;;5052710;28;20600;-86
2021/12/10 05:49:36;;;;;;;25.38;23.75;;;;;;;;;;5053070;28;20603;-84
2021/12/10 05:52:04;;;;;;;24.05;22.45;;;;;;;;;;5052483;28;20194;-86
2021/12/10 05:54:32;;;;;;;24.88;23.33;;;;;;;;;;5052475;28;20716;-85
2021/12/10 05:56:59;;;;;;;24.70;23.10;;;;;;;;;;5052371;28;20640;-85
2021/12/10 05:59:27;;;;;;;24.63;23.02;;;;;;;;;;5052474;28;20216;-85
2021/12/10 06:01:54;;;;;;;26.45;24.35;;;;;;;;;;5052398;28;20213;-85
2021/12/10 06:04:23;;;;;;;24.90;23.40;;;;;;;;;;5052301;28;20224;-85
2021/12/10 06:06:52;;;;;;;23.90;22.40;;;;;;;;;;5052569;28;20202;-86
2021/12/10 06:09:19;;;;;;;25.70;23.98;;;;;;;;;;5063231;28;20192;-85
2021/12/10 06:11:47;;;;;;;25.17;23.48;;;;;;;;;;5072783;28;20199;-85
2021/12/10 06:14:14;;;;;;;24.88;23.10;;;;;;;;;;5072249;28;20206;-86
2021/12/10 06:16:42;;;;;;;25.35;23.65;;;;;;;;;;5072629;28;20591;-85
2021/12/10 06:19:09;;;;;;;25.48;23.70;;;;;;;;;;5072322;28;20196;-85
2021/12/10 06:21:37;;;;;;;25.70;23.55;;;;;;;;;;5072601;28;20207;-85
2021/12/10 06:24:06;;;;;;;25.08;23.17;;;;;;;;;;5076033;28;20193;-85
2021/12/10 06:26:34;;;;;;;23.58;22.00;;;;;;;;;;5076231;28;20196;-85
2021/12/10 06:29:01;;;;;;;25.95;24.25;;;;;;;;;;5075910;28;20201;-85
2021/12/10 06:31:30;;;;;;;26.45;24.55;;;;;;;;;;5076016;28;20204;-85
2021/12/10 06:33:58;;;;;;;25.35;23.65;;;;;;;;;;5075804;28;20284;-85
2021/12/10 06:36:27;;;;;;;24.98;23.27;;;;;;;;;;5075930;28;20189;-85
2021/12/10 06:38:55;;;;;;;25.27;23.65;;;;;;;;;;5077228;28;20279;-85
2021/12/10 06:41:24;;;;;;;26.23;24.23;;;;;;;;;;5096197;28;20633;-86
2021/12/10 06:43:51;;;;;;;24.98;22.90;;;;;;;;;;5095724;28;20672;-85
2021/12/10 06:46:19;;;;;;;25.33;23.52;;;;;;;;;;5096118;28;20233;-85
2021/12/10 06:48:46;;;;;;;24.52;23.00;;;;;;;;;;5095914;28;20656;-85
2021/12/10 06:51:16;;;;;;;24.08;22.48;;;;;;;;;;5095856;28;20187;-85
2021/12/10 06:53:44;;;;;;;25.38;23.58;;;;;;;;;;5095949;28;20238;-85
2021/12/10 06:56:12;;;;;;;23.88;22.40;;;;;;;;;;5095703;28;20192;-85
2021/12/10 06:58:42;;;;;;;24.25;22.70;;;;;;;;;;5095936;28;20725;-87
2021/12/10 07:01:13;;;;;;;24.67;23.08;;;;;;;;;;5095909;28;20555;-85
2021/12/10 07:03:41;;;;;;;25.83;24.13;;;;;;;;;;5095635;28;20197;-86
2021/12/10 07:06:09;;;;;;;26.05;24.35;;;;;;;;;;5095486;28;20279;-85
2021/12/10 07:08:38;;;;;;;25.75;24.00;;;;;;;;;;5095631;28;20233;-85
2021/12/10 07:11:06;;;;;;;26.15;24.42;;;;;;;;;;5095843;28;20245;-84
2021/12/10 07:13:35;;;;;;;24.75;23.10;;;;;;;;;;5095403;28;20192;-85
2021/12/10 07:16:05;;;;;;;25.13;23.50;;;;;;;;;;5095685;28;20193;-85
2021/12/10 07:18:33;;;;;;;25.38;23.88;;;;;;;;;;5077112;28;20197;-85
2021/12/10 07:21:01;;;;;;;25.42;23.73;;;;;;;;;;5095416;28;20593;-85
2021/12/10 07:23:28;;;;;;;25.88;24.10;;;;;;;;;;5095374;28;20592;-85
2021/12/10 07:25:56;;;;;;;26.13;24.40;;;;;;;;;;5095116;28;20216;-85
2021/12/10 07:28:23;;;;;;;25.10;23.50;;;;;;;;;;5094990;28;20545;-85
2021/12/10 07:30:51;;;;;;;27.00;24.95;;;;;;;;;;5095113;28;20201;-85
2021/12/10 07:33:21;;;;;;;25.52;23.83;;;;;;;;;;5095039;28;20653;-85
2021/12/10 07:35:49;;;;;;;25.15;23.23;;;;;;;;;;5095435;28;20562;-85
2021/12/10 07:38:17;;;;;;;23.02;21.63;;;;;;;;;;5095653;28;20202;-86
2021/12/10 07:40:45;;;;;;;24.92;23.33;;;;;;;;;;5094962;28;20277;-86
2021/12/10 07:43:12;;;;;;;25.15;23.42;;;;;;;;;;5076592;28;20252;-85
2021/12/10 07:45:40;;;;;;;25.48;23.70;;;;;;;;;;5094748;28;20213;-85
2021/12/10 07:48:11;;;;;;;25.20;23.40;;;;;;;;;;5095009;28;20204;-85
2021/12/10 07:50:41;;;;;;;25.60;23.70;;;;;;;;;;5094576;28;20215;-85
2021/12/10 07:53:09;;;;;;;25.83;24.13;;;;;;;;;;5094864;28;20274;-85
2021/12/10 07:55:37;;;;;;;24.13;22.70;;;;;;;;;;5076566;28;20199;-85
2021/12/10 07:58:06;;;;;;;26.38;24.67;;;;;;;;;;5094799;28;20230;-85
2021/12/10 08:00:40;;;;;;;24.88;23.38;;;;;;;;;;5076666;28;20197;-85
2021/12/10 08:03:07;;;;;;;25.73;24.08;;;;;;;;;;5094562;28;20191;-84
2021/12/10 08:05:35;;;;;;;25.88;24.00;;;;;;;;;;5094666;28;20225;-85
2021/12/10 08:08:05;;;;;;;24.83;23.20;;;;;;;;;;5094297;28;20193;-85
2021/12/10 08:10:33;;;;;;;26.83;24.65;;;;;;;;;;5054278;28;20201;-85
2021/12/10 08:13:00;;;;;;;27.83;25.73;;;;;;;;;;5053621;28;20221;-84
2021/12/10 08:15:28;;;;;;;27.85;25.65;;;;;;;;;;5053944;28;20192;-85
2021/12/10 08:17:55;;;;;;;26.90;25.15;;;;;;;;;;5054158;28;20185;-84
2021/12/10 08:20:24;;;;;;;25.92;24.27;;;;;;;;;;5054024;28;20643;-84
2021/12/10 08:22:52;;;;;;;26.80;25.10;;;;;;;;;;5053974;28;20189;-85
2021/12/10 08:25:21;;;;;;;26.85;24.85;;;;;;;;;;5053682;28;20221;-85
2021/12/10 08:27:50;;;;;;;26.80;25.00;;;;;;;;;;5035821;28;20200;-84
2021/12/10 08:30:18;;;;;;;26.20;24.50;;;;;;;;;;5053674;28;20545;-84
2021/12/10 08:32:46;;;;;;;27.27;25.40;;;;;;;;;;5053715;28;20538;-84
2021/12/10 08:35:15;;;;;;;26.00;24.45;;;;;;;;;;5053229;28;20183;-84
2021/12/10 08:37:42;;;;;;;28.45;26.35;;;;;;;;;;5053086;28;20628;-83
2021/12/10 08:40:12;;;;;;;26.67;25.08;;;;;;;;;;5035332;28;20299;-86
2021/12/10 08:42:40;;;;;;;26.80;24.90;;;;;;;;;;5053399;28;20208;-86
2021/12/10 08:45:09;;;;;;;27.17;24.40;;;;;;;;;;5033964;28;20226;-88
2021/12/10 08:47:37;;;;;;;25.00;23.27;;;;;;;;;;5053411;28;20205;-84
2021/12/10 08:50:05;;;;;;;24.63;23.15;;;;;;;;;;5053325;28;20658;-84
2021/12/10 08:52:33;;;;;;;25.20;23.70;;;;;;;;;;5053125;28;20232;-85
2021/12/10 08:55:00;;;;;;;23.38;21.88;;;;;;;;;;5053298;28;20181;-85
2021/12/10 08:57:28;;;;;;;24.35;22.85;;;;;;;;;;5053218;28;20230;-86
2021/12/10 08:59:57;;;;;;;23.42;22.08;;;;;;;;;;5053171;28;20193;-85
2021/12/10 09:02:24;;;;;;;24.60;22.95;;;;;;;;;;5053341;28;20185;-88
2021/12/10 09:04:51;;;;;;;24.35;22.95;;;;;;;;;;5053284;28;20243;-82
2021/12/10 09:07:21;;;;;;;24.80;23.10;;;;;;;;;;5052191;28;20195;-82
2021/12/10 09:09:49;;;;;;;24.05;22.35;;;;;;;;;;5079725;28;20188;-90
2021/12/10 09:12:18;;;;;;;23.88;22.25;;;;;;;;;;5092992;28;20250;-85
2021/12/10 09:14:49;;;;;;;24.58;22.95;;;;;;;;;;5093455;28;20196;-85
2021/12/10 09:17:21;;;;;;;23.25;21.85;;;;;;;;;;5093028;28;20688;-84
2021/12/10 09:19:49;;;;;;;22.13;20.90;;;;;;;;;;5092927;28;20234;-82
2021/12/10 09:22:17;;;;;;;22.92;21.20;;;;;;;;;;5092463;28;20200;-83
2021/12/10 09:24:45;;;;;;;23.38;21.67;;;;;;;;;;5093148;28;20189;-87
2021/12/10 09:27:12;;;;;;;22.55;21.10;;;;;;;;;;5092365;28;20225;-84
2021/12/10 09:29:43;;;;;;;22.98;21.58;;;;;;;;;;5092959;28;20656;-84
2021/12/10 09:32:12;;;;;;;23.55;21.77;;;;;;;;;;5092617;28;20198;-84
2021/12/10 09:34:45;;;;;;;22.65;21.15;;;;;;;;;;5092867;28;20189;-85
2021/12/10 09:37:13;;;;;;;23.10;21.80;;;;;;;;;;5092628;28;20196;-84
2021/12/10 09:39:41;;;;;;;22.52;20.88;;;;;;;;;;5092148;28;20262;-85
2021/12/10 09:42:09;;;;;;;22.27;20.88;;;;;;;;;;5093224;28;20208;-83
2021/12/10 09:44:36;;;;;;;22.95;21.45;;;;;;;;;;5092846;28;20199;-84
2021/12/10 09:47:05;;;;;;;23.55;21.80;;;;;;;;;;5092511;28;20239;-84
2021/12/10 09:49:33;;;;;;;23.23;21.63;;;;;;;;;;5092760;28;20277;-84
2021/12/10 09:52:05;;;;;;;23.50;21.92;;;;;;;;;;5092568;28;20208;-84
2021/12/10 09:54:33;;;;;;;22.40;20.77;;;;;;;;;;5092583;28;20579;-84
2021/12/10 09:57:02;;;;;;;22.88;21.48;;;;;;;;;;5094892;28;20659;-84
2021/12/10 09:59:30;;;;;;;23.15;21.85;;;;;;;;;;5096610;28;20200;-84
2021/12/10 10:01:59;;;;;;;23.65;21.80;;;;;;;;;;5096721;28;20197;-84
2021/12/10 10:04:27;;;;;;;23.05;21.45;;;;;;;;;;5096801;28;20189;-85
2021/12/10 10:06:56;;;;;;;21.08;19.88;;;;;;;;;;5096464;28;20262;-84
2021/12/10 10:09:26;;;;;;;23.45;21.70;;;;;;;;;;5096447;28;20195;-85
2021/12/10 10:11:55;;;;;;;22.90;21.30;;;;;;;;;;5096403;28;20219;-84
2021/12/10 10:14:23;;;;;;;22.63;21.00;;;;;;;;;;5078137;28;20204;-84
2021/12/10 10:16:51;;;;;;;23.10;21.60;;;;;;;;;;5095888;28;20212;-85
2021/12/10 10:19:19;;;;;;;20.73;19.52;;;;;;;;;;5096103;28;20196;-85
2021/12/10 10:21:48;;;;;;;23.27;21.98;;;;;;;;;;5096115;28;20662;-85
2021/12/10 10:24:16;;;;;;;23.48;21.48;;;;;;;;;;5096168;28;20215;-84
2021/12/10 10:26:48;;;;;;;22.67;21.17;;;;;;;;;;5077934;28;20289;-84
2021/12/10 10:29:18;;;;;;;22.75;21.15;;;;;;;;;;5096274;28;20189;-84
2021/12/10 10:31:49;;;;;;;22.80;21.20;;;;;;;;;;5078218;28;20255;-84
2021/12/10 10:34:17;;;;;;;21.13;19.85;;;;;;;;;;5077868;28;20204;-85
2021/12/10 10:36:45;;;;;;;22.52;20.92;;;;;;;;;;5096210;28;20192;-85
2021/12/10 10:39:15;;;;;;;22.13;20.70;;;;;;;;;;5095976;28;20237;-83
2021/12/10 10:41:44;;;;;;;23.00;21.17;;;;;;;;;;5095884;28;20556;-84
2021/12/10 10:44:13;;;;;;;22.92;21.30;;;;;;;;;;5096022;28;20553;-84
2021/12/10 10:46:41;;;;;;;22.13;20.23;;;;;;;;;;5095950;28;20213;-84
2021/12/10 10:49:09;;;;;;;21.77;20.27;;;;;;;;;;5095450;28;20794;-85
2021/12/10 10:51:38;;;;;;;22.50;21.00;;;;;;;;;;5095474;28;20195;-84
2021/12/10 10:54:06;;;;;;;23.55;21.73;;;;;;;;;;5095629;28;20189;-85
2021/12/10 10:56:35;;;;;;;20.95;19.77;;;;;;;;;;5095738;28;20237;-84
2021/12/10 10:59:03;;;;;;;22.55;21.00;;;;;;;;;;5095940;28;20544;-84
2021/12/10 11:01:35;;;;;;;22.60;21.20;;;;;;;;;;5095332;28;20189;-85
2021/12/10 11:04:05;;;;;;;24.88;22.83;;;;;;;;;;5095507;28;20205;-85
2021/12/10 11:06:36;;;;;;;23.52;21.65;;;;;;;;;;5095250;28;20228;-84
2021/12/10 11:09:09;;;;;;;23.05;21.65;;;;;;;;;;5070492;28;20602;-85
2021/12/10 11:11:41;;;;;;;22.50;21.30;;;;;;;;;;5074945;28;20214;-84
2021/12/10 11:14:10;;;;;;;22.60;21.20;;;;;;;;;;5074779;28;20621;-84
2021/12/10 11:16:40;;;;;;;21.42;19.80;;;;;;;;;;5074900;28;20244;-84
2021/12/10 11:19:09;;;;;;;22.40;20.67;;;;;;;;;;5075265;28;20220;-84
2021/12/10 11:21:39;;;;;;;23.10;21.40;;;;;;;;;;5074638;28;20734;-84
2021/12/10 11:24:12;;;;;;;23.33;21.83;;;;;;;;;;5057657;28;20201;-84
2021/12/10 11:26:47;;;;;;;23.30;21.45;;;;;;;;;;5056759;28;20230;-85
2021/12/10 11:29:36;;;;;;;24.25;22.63;;;;;;;;;;5074597;28;20520;-84
2021/12/10 11:32:08;;;;;;;22.52;21.33;;;;;;;;;;5074964;28;20307;-84
2021/12/10 11:34:46;;;;;;;25.25;23.60;;;;;;;;;;5074622;28;20259;-85
2021/12/10 11:37:16;;;;;;;23.73;22.13;;;;;;;;;;5074850;28;20190;-85
2021/12/10 11:39:45;;;;;;;23.80;22.05;;;;;;;;;;5074125;28;20690;-84
2021/12/10 11:42:33;;;;;;;23.00;21.20;;;;;;;;;;5056634;28;20292;-83
2021/12/10 11:45:18;;;;;;;22.55;21.15;;;;;;;;;;5074930;28;20679;-87
2021/12/10 11:47:51;;;;;;;22.90;21.25;;;;;;;;;;5074203;28;20229;-83
2021/12/10 11:50:20;;;;;;;22.60;20.50;;;;;;;;;;5074253;28;20220;-83
2021/12/10 11:53:00;;;;;;;22.02;20.63;;;;;;;;;;5073966;28;20236;-84
2021/12/10 11:55:28;;;;;;;22.60;21.10;;;;;;;;;;5073670;28;20308;-83
2021/12/10 11:57:55;;;;;;;21.05;19.95;;;;;;;;;;5074492;28;20197;-84
2021/12/10 12:00:24;;;;;;;22.55;20.90;;;;;;;;;;5074127;28;20190;-84
2021/12/10 12:02:54;;;;;;;22.40;20.83;;;;;;;;;;5073639;28;20190;-83
2021/12/10 12:05:24;;;;;;;22.52;20.80;;;;;;;;;;5073954;28;20197;-84
2021/12/10 12:07:52;;;;;;;23.00;21.50;;;;;;;;;;5074305;28;20218;-83
2021/12/10 12:10:22;;;;;;;22.50;20.70;;;;;;;;;;5090704;28;20596;-83
2021/12/10 12:12:50;;;;;;;22.52;21.00;;;;;;;;;;5094263;28;20234;-83
2021/12/10 12:15:22;;;;;;;21.67;20.27;;;;;;;;;;5094040;28;20552;-84
2021/12/10 12:17:50;;;;;;;21.90;20.48;;;;;;;;;;5094091;28;20602;-84
2021/12/10 12:20:39;;;;;;;22.33;20.60;;;;;;;;;;5074946;28;20259;-84
2021/12/10 12:25:55;;;;;;;22.15;20.55;;;;;;;;;;5093943;28;20751;-84
2021/12/10 12:28:24;;;;;;;22.15;20.63;;;;;;;;;;5093961;28;20206;-83
2021/12/10 12:30:57;;;;;;;21.92;20.63;;;;;;;;;;5075984;28;20283;-84
2021/12/10 12:33:26;;;;;;;22.23;20.80;;;;;;;;;;5094159;28;20198;-84
2021/12/10 12:35:53;;;;;;;22.30;20.80;;;;;;;;;;5094161;28;20232;-85
2021/12/10 12:38:27;;;;;;;23.40;21.67;;;;;;;;;;5076027;28;20192;-84
2021/12/10 12:41:07;;;;;;;23.40;21.80;;;;;;;;;;5093223;28;20236;-84
2021/12/10 12:43:35;;;;;;;22.85;21.23;;;;;;;;;;5093264;28;20189;-84
2021/12/10 12:46:06;;;;;;;22.65;21.25;;;;;;;;;;5093622;28;20196;-84
2021/12/10 12:48:33;;;;;;;22.20;20.83;;;;;;;;;;5093862;28;20658;-89
2021/12/10 12:51:11;;;;;;;21.50;20.30;;;;;;;;;;5093843;28;20193;-84
2021/12/10 12:53:40;;;;;;;23.40;21.63;;;;;;;;;;5094237;28;20644;-86
2021/12/10 12:56:10;;;;;;;23.20;21.60;;;;;;;;;;5094256;28;20199;-88
2021/12/10 12:58:41;;;;;;;22.53;21.17;;;;;;;;;;5081415;28;20247;-90
2021/12/10 13:01:11;;;;;;;22.90;21.25;;;;;;;;;;5073268;28;20471;-93
2021/12/10 13:03:41;;;;;;;22.48;21.05;;;;;;;;;;5073674;28;20206;-90
2021/12/10 13:06:12;;;;;;;22.85;21.33;;;;;;;;;;5073118;28;20224;-81
2021/12/10 13:08:43;;;;;;;22.42;20.80;;;;;;;;;;5072435;28;20193;-82
2021/12/10 13:11:13;;;;;;;21.88;20.40;;;;;;;;;;5069062;28;20231;-84
2021/12/10 13:13:44;;;;;;;24.08;22.52;;;;;;;;;;5071275;28;20290;-81
2021/12/10 13:16:12;;;;;;;23.67;22.25;;;;;;;;;;5072933;28;20305;-89
2021/12/10 13:18:40;;;;;;;23.70;22.05;;;;;;;;;;5074170;28;20186;-87
2021/12/10 13:21:08;;;;;;;23.10;21.70;;;;;;;;;;5073580;28;20596;-87
2021/12/10 13:23:35;;;;;;;23.63;22.17;;;;;;;;;;5073553;28;20192;-86
2021/12/10 13:26:09;;;;;;;22.75;21.45;;;;;;;;;;5072891;28;20216;-84
2021/12/10 13:28:37;;;;;;;22.60;21.10;;;;;;;;;;5072632;28;20772;-83
2021/12/10 13:31:08;;;;;;;22.02;20.52;;;;;;;;;;5071591;28;20190;-82
2021/12/10 13:33:36;;;;;;;21.85;20.58;;;;;;;;;;5072094;28;20280;-82
2021/12/10 13:36:05;;;;;;;22.98;21.00;;;;;;;;;;5072272;28;20197;-82
2021/12/10 13:38:33;;;;;;;22.23;20.73;;;;;;;;;;5071974;28;20193;-82
2021/12/10 13:41:02;;;;;;;22.63;21.30;;;;;;;;;;5071823;28;20242;-87
2021/12/10 13:43:33;;;;;;;21.50;20.17;;;;;;;;;;5073217;28;20191;-87
2021/12/10 13:46:09;;;;;;;22.45;21.08;;;;;;;;;;5054042;28;20283;-81
2021/12/10 13:48:39;;;;;;;21.27;20.17;;;;;;;;;;5071778;28;20221;-81
2021/12/10 13:51:07;;;;;;;22.35;20.95;;;;;;;;;;5071519;28;20205;-83
2021/12/10 13:53:35;;;;;;;24.33;22.63;;;;;;;;;;5072225;28;20248;-80
2021/12/10 13:56:05;;;;;;;21.77;20.23;;;;;;;;;;5071620;28;20201;-80
2021/12/10 13:58:37;;;;;;;21.20;19.80;;;;;;;;;;5071736;28;20209;-81
2021/12/10 14:01:06;;;;;;;21.05;19.75;;;;;;;;;;5071800;28;20527;-80
2021/12/10 14:03:54;;;;;;;22.27;20.75;;;;;;;;;;5071988;28;20193;-80
2021/12/10 14:06:32;;;;;;;23.45;21.60;;;;;;;;;;5071869;28;20562;-82
2021/12/10 14:09:23;;;;;;;23.23;21.58;;;;;;;;;;5076254;28;20274;-83
2021/12/10 14:12:06;;;;;;;23.10;21.40;;;;;;;;;;5091814;28;20189;-81
2021/12/10 14:14:36;;;;;;;22.10;20.55;;;;;;;;;;5091785;28;20189;-80
2021/12/10 14:17:05;;;;;;;22.70;21.23;;;;;;;;;;5091562;28;20643;-80
2021/12/10 14:19:34;;;;;;;21.92;20.48;;;;;;;;;;5091986;28;20196;-83
2021/12/10 14:22:02;;;;;;;22.67;21.27;;;;;;;;;;5092144;28;20308;-83
2021/12/10 14:24:34;;;;;;;22.80;21.00;;;;;;;;;;5091651;28;20192;-83
2021/12/10 14:27:15;;;;;;;22.00;20.70;;;;;;;;;;5091706;28;20229;-82
2021/12/10 14:29:45;;;;;;;21.48;20.25;;;;;;;;;;5092273;28;20619;-83
2021/12/10 14:32:20;;;;;;;21.98;20.45;;;;;;;;;;5092033;28;20221;-83
2021/12/10 14:35:01;;;;;;;23.15;20.85;;;;;;;;;;5091872;28;20192;-84
2021/12/10 14:37:29;;;;;;;21.70;20.35;;;;;;;;;;5073684;28;20296;-83